createdAt,value
2023-05-15T00:00:07.502Z,2.40
2023-05-15T00:05:20.963Z,2.08
2023-05-15T00:07:52.448Z,2.40
2023-05-15T00:10:23.746Z,2.33
2023-05-15T00:12:55.238Z,2.40
2023-05-15T00:15:27.192Z,2.25
2023-05-15T00:17:58.710Z,2.20
2023-05-15T00:20:32.586Z,2.33
2023-05-15T00:23:04.967Z,2.30
2023-05-15T00:25:36.004Z,2.28
2023-05-15T00:28:07.227Z,2.50
2023-05-15T00:30:38.279Z,2.45
2023-05-15T00:33:09.344Z,2.15
2023-05-15T00:35:42.948Z,2.40
2023-05-15T00:38:14.600Z,2.30
2023-05-15T00:40:46.687Z,2.45
2023-05-15T00:43:19.366Z,2.58
2023-05-15T00:45:51.867Z,3.20
2023-05-15T00:48:25.205Z,2.35
2023-05-15T00:51:01.044Z,2.28
2023-05-15T00:53:32.463Z,2.45
2023-05-15T00:56:04.455Z,2.60
2023-05-15T00:58:39.197Z,2.60
2023-05-15T01:01:10.538Z,2.30
2023-05-15T01:03:42.050Z,2.38
2023-05-15T01:06:15.315Z,2.60
2023-05-15T01:08:49.740Z,2.40
2023-05-15T01:11:21.942Z,2.70
2023-05-15T01:13:52.971Z,2.60
2023-05-15T01:16:25.697Z,2.10
2023-05-15T01:18:57.245Z,2.50
2023-05-15T01:22:21.407Z,2.30
2023-05-15T01:25:15.343Z,2.40
2023-05-15T01:27:50.871Z,2.80
2023-05-15T01:30:26.450Z,2.38
2023-05-15T01:33:05.206Z,2.30
2023-05-15T01:35:41.708Z,2.15
2023-05-15T01:38:19.550Z,1.88
2023-05-15T01:40:54.679Z,1.60
2023-05-15T01:43:33.970Z,1.38
2023-05-15T01:46:05.679Z,1.80
2023-05-15T01:48:39.012Z,1.83
2023-05-15T01:51:14.342Z,1.80
2023-05-15T01:53:47.680Z,1.30
2023-05-15T01:56:20.932Z,1.38
2023-05-15T01:58:55.907Z,1.20
2023-05-15T02:01:27.932Z,1.33
2023-05-15T02:04:00.049Z,1.13
2023-05-15T02:06:32.376Z,1.50
2023-05-15T02:09:06.825Z,1.40
2023-05-15T02:11:38.396Z,1.33
2023-05-15T02:14:15.007Z,1.40
2023-05-15T02:16:46.379Z,1.20
2023-05-15T02:19:17.881Z,1.40
2023-05-15T02:21:49.207Z,1.40
2023-05-15T02:24:20.527Z,1.30
2023-05-15T02:27:00.190Z,1.45
2023-05-15T02:29:39.748Z,1.20
2023-05-15T02:32:17.816Z,1.30
2023-05-15T02:34:56.398Z,1.40
2023-05-15T02:37:33.597Z,1.20
2023-05-15T02:40:08.277Z,1.20
2023-05-15T02:42:41.042Z,1.40
2023-05-15T02:45:15.315Z,1.42
2023-05-15T02:47:46.656Z,1.35
2023-05-15T02:50:18.526Z,1.42
2023-05-15T02:52:49.842Z,1.30
2023-05-15T02:55:21.531Z,1.40
2023-05-15T02:57:52.363Z,1.35
2023-05-15T03:00:26.681Z,1.33
2023-05-15T03:02:58.367Z,1.20
2023-05-15T03:05:30.145Z,1.10
2023-05-15T03:08:01.414Z,1.45
2023-05-15T03:10:32.588Z,1.50
2023-05-15T03:13:07.486Z,1.55
2023-05-15T04:31:09.812Z,2.03
2023-05-15T04:34:02.836Z,1.57
2023-05-15T04:36:58.908Z,1.70
2023-05-15T04:39:54.557Z,1.97
2023-05-15T04:42:27.611Z,1.83
2023-05-15T04:45:04.801Z,1.67
2023-05-15T04:47:50.517Z,2.00
2023-05-15T04:53:26.832Z,2.03
2023-05-15T05:10:00.421Z,1.77
2023-05-15T05:23:23.073Z,1.70
2023-05-15T05:25:57.741Z,1.80
2023-05-15T05:28:29.656Z,1.57
2023-05-15T05:31:01.384Z,1.80
2023-05-15T05:33:32.863Z,1.70
2023-05-15T05:39:06.931Z,1.70
2023-05-15T05:46:58.624Z,1.60
2023-05-15T05:49:31.277Z,1.60
2023-05-15T05:52:11.378Z,1.90
2023-05-15T05:54:43.439Z,1.80
2023-05-15T05:57:15.628Z,1.70
2023-05-15T05:59:48.061Z,1.80
2023-05-15T06:02:24.019Z,1.83
2023-05-15T06:08:05.578Z,2.13
2023-05-15T11:36:11.294Z,2.53
2023-05-15T11:38:44.792Z,2.57
2023-05-15T15:41:39.899Z,3.33
2023-05-15T15:44:15.259Z,3.03
2023-05-15T16:38:06.208Z,4.13
2023-05-15T16:40:37.688Z,3.57
2023-05-15T16:43:08.613Z,4.13
2023-05-15T16:45:39.935Z,3.60
2023-05-15T16:48:11.284Z,3.20
2023-05-15T16:50:46.106Z,3.97
2023-05-15T16:53:19.836Z,4.70
2023-05-15T16:55:52.666Z,4.00
2023-05-15T16:58:24.065Z,5.40
2023-05-15T17:00:55.692Z,4.50
2023-05-15T17:03:27.352Z,4.50
2023-05-15T17:05:58.153Z,3.20
2023-05-15T17:08:31.547Z,3.83
2023-05-15T17:11:03.628Z,2.93
2023-05-15T17:13:35.184Z,3.60
2023-05-15T17:16:06.771Z,4.23
2023-05-15T17:18:40.934Z,3.40
2023-05-15T17:21:13.124Z,3.73
2023-05-15T17:23:46.753Z,4.87
2023-05-15T17:26:19.172Z,2.90
2023-05-15T17:28:50.369Z,3.30
2023-05-15T17:31:22.093Z,4.13
2023-05-15T17:33:53.452Z,3.47
2023-05-15T17:36:24.932Z,4.30
2023-05-15T17:39:00.678Z,3.30
2023-05-15T17:41:31.919Z,4.67
2023-05-15T17:44:03.736Z,3.53
2023-05-15T17:46:35.614Z,5.23
2023-05-15T17:49:08.168Z,7.00
2023-05-15T17:51:39.092Z,6.20
2023-05-15T17:54:12.268Z,5.40
2023-05-15T17:56:43.828Z,5.93
2023-05-15T17:59:18.438Z,3.00
2023-05-15T18:01:49.855Z,6.50
2023-05-15T18:04:21.223Z,3.57
2023-05-15T18:06:52.355Z,3.20
2023-05-15T18:09:25.619Z,4.60
2023-05-15T18:11:56.740Z,3.63
2023-05-15T18:14:28.130Z,6.70
2023-05-15T18:16:59.379Z,4.23
2023-05-15T18:19:30.883Z,3.17
2023-05-15T18:22:04.272Z,3.80
2023-05-15T18:24:37.415Z,3.83
2023-05-15T18:27:08.767Z,3.97
2023-05-15T18:29:40.402Z,4.90
2023-05-15T18:32:11.890Z,4.23
2023-05-15T18:34:42.664Z,3.85
2023-05-15T18:37:14.082Z,3.60
2023-05-15T18:39:49.066Z,4.50
2023-05-15T18:42:20.235Z,4.00
2023-05-15T18:44:51.726Z,4.43
2023-05-15T18:47:23.715Z,3.60
2023-05-15T18:49:55.232Z,3.00
2023-05-15T18:52:27.912Z,3.10
2023-05-15T18:55:02.331Z,3.38
2023-05-15T18:57:33.374Z,3.30
2023-05-15T19:00:04.786Z,4.60
2023-05-15T19:02:36.939Z,3.70
2023-05-15T19:05:08.548Z,3.25
2023-05-15T19:07:39.693Z,3.85
2023-05-15T19:10:15.153Z,4.13
2023-05-15T19:12:47.766Z,4.25
2023-05-15T19:15:20.021Z,3.25
2023-05-15T19:17:50.791Z,3.83
2023-05-15T19:20:21.691Z,3.90
2023-05-15T19:22:52.829Z,3.30
2023-05-15T19:25:27.564Z,3.10
2023-05-15T19:27:58.592Z,3.85
2023-05-15T19:30:30.527Z,3.10
2023-05-15T19:33:02.795Z,3.30
2023-05-15T19:35:36.697Z,3.45
2023-05-15T19:38:09.492Z,3.58
2023-05-15T19:40:46.144Z,3.40
2023-05-15T19:43:16.968Z,3.80
2023-05-15T19:45:47.953Z,2.97
2023-05-15T19:48:20.049Z,2.85
2023-05-15T19:50:51.131Z,3.22
2023-05-15T19:53:22.691Z,3.35
2023-05-15T19:56:09.893Z,3.53
2023-05-15T19:58:41.761Z,3.72
2023-05-15T20:01:13.138Z,3.88
2023-05-15T20:03:44.260Z,3.55
2023-05-15T20:06:15.884Z,3.10
2023-05-15T20:08:47.076Z,3.30
2023-05-15T20:11:20.378Z,3.38
2023-05-15T20:13:51.915Z,4.00
2023-05-15T20:16:22.697Z,3.20
2023-05-15T20:18:56.098Z,3.15
2023-05-15T20:21:27.328Z,3.83
2023-05-15T20:23:59.007Z,3.45
2023-05-15T20:26:31.778Z,3.58
2023-05-15T20:29:03.470Z,3.30
2023-05-15T20:31:35.004Z,3.25
2023-05-15T20:34:08.066Z,3.90
2023-05-15T20:36:39.655Z,4.18
2023-05-15T20:39:14.264Z,3.22
2023-05-15T20:41:47.185Z,3.08
2023-05-15T20:44:18.677Z,3.17
2023-05-15T20:46:49.696Z,2.95
2023-05-15T20:49:20.621Z,2.90
2023-05-15T20:51:52.273Z,3.00
2023-05-15T20:54:23.269Z,3.65
2023-05-15T20:56:56.118Z,3.10
2023-05-15T20:59:27.296Z,3.60
2023-05-15T21:01:58.247Z,3.42
2023-05-15T21:04:29.320Z,3.65
2023-05-15T21:07:00.168Z,3.03
2023-05-15T21:09:31.372Z,3.25
2023-05-15T21:12:05.016Z,3.50
2023-05-15T21:14:36.927Z,2.90
2023-05-15T21:17:08.968Z,3.05
2023-05-15T21:19:40.179Z,2.83
2023-05-15T21:22:11.197Z,3.28
2023-05-15T21:24:42.467Z,2.97
2023-05-15T21:27:15.770Z,2.90
2023-05-15T21:29:46.743Z,3.40
2023-05-15T21:32:17.528Z,3.28
2023-05-15T21:34:48.511Z,3.33
2023-05-15T21:37:19.208Z,3.40
2023-05-15T21:39:50.438Z,2.83
2023-05-15T21:42:23.732Z,3.10
2023-05-15T21:44:55.104Z,3.38
2023-05-15T21:47:25.960Z,3.55
2023-05-15T21:49:57.348Z,2.58
2023-05-15T21:52:28.911Z,2.88
2023-05-15T21:55:00.029Z,3.33
2023-05-15T21:57:33.400Z,3.10
2023-05-15T22:00:05.272Z,3.13
2023-05-15T22:02:36.789Z,2.97
2023-05-15T22:05:09.354Z,2.97
2023-05-15T22:07:41.022Z,3.00
2023-05-15T22:10:17.096Z,2.88
2023-05-15T22:12:50.611Z,3.03
2023-05-15T22:15:21.695Z,2.80
2023-05-15T22:17:53.209Z,3.50
2023-05-15T22:20:25.312Z,3.17
2023-05-15T22:22:56.821Z,3.30
2023-05-15T22:25:28.117Z,3.10
2023-05-15T22:28:00.660Z,3.10
2023-05-15T22:30:31.690Z,3.38
2023-05-15T22:33:02.828Z,3.17
2023-05-15T22:35:34.080Z,2.78
2023-05-15T22:38:06.546Z,3.00
2023-05-15T22:40:38.476Z,2.95
2023-05-15T22:43:11.620Z,3.40
2023-05-15T22:45:43.115Z,3.50
2023-05-15T22:48:14.707Z,3.35
2023-05-15T22:50:46.616Z,3.25
2023-05-15T22:53:18.096Z,2.63
2023-05-15T22:55:48.885Z,3.03
2023-05-15T22:58:23.058Z,2.28
2023-05-15T23:00:54.747Z,2.40
2023-05-15T23:03:25.984Z,2.50
2023-05-15T23:06:11.720Z,2.63
2023-05-15T23:08:42.965Z,2.50
2023-05-15T23:11:14.212Z,2.90
2023-05-15T23:13:47.990Z,2.75
2023-05-15T23:16:19.002Z,3.30
2023-05-15T23:18:49.932Z,3.13
2023-05-15T23:21:20.703Z,2.85
2023-05-15T23:23:51.788Z,2.53
2023-05-15T23:26:22.682Z,2.80
2023-05-15T23:28:55.191Z,2.80
2023-05-15T23:31:26.046Z,3.00
2023-05-15T23:33:57.003Z,2.85
2023-05-15T23:36:27.799Z,3.00
2023-05-15T23:38:58.560Z,3.00
2023-05-15T23:41:29.601Z,3.00
2023-05-15T23:44:02.110Z,2.80
2023-05-15T23:46:32.897Z,2.58
2023-05-15T23:49:04.539Z,2.60
2023-05-15T23:51:35.774Z,2.70
2023-05-15T23:54:06.839Z,2.67
2023-05-15T23:56:37.828Z,2.60
2023-05-15T23:59:10.284Z,2.78
